createdAt,value
2023-03-18T00:00:09.889Z,10.10
2023-03-18T00:02:42.713Z,10.10
2023-03-18T00:05:10.613Z,10.10
2023-03-18T00:07:39.630Z,10.20
2023-03-18T00:10:07.338Z,10.20
2023-03-18T00:12:34.422Z,10.20
2023-03-18T00:15:01.220Z,10.30
2023-03-18T00:17:30.327Z,10.30
2023-03-18T00:19:57.103Z,10.30
2023-03-18T00:22:24.692Z,10.30
2023-03-18T00:24:51.395Z,10.40
2023-03-18T00:27:18.063Z,10.40
2023-03-18T00:29:45.943Z,10.50
2023-03-18T00:32:12.516Z,10.40
2023-03-18T00:34:39.603Z,10.40
2023-03-18T00:37:06.218Z,10.40
2023-03-18T00:39:33.222Z,10.40
2023-03-18T00:42:02.163Z,10.40
2023-03-18T00:44:28.796Z,10.40
2023-03-18T00:46:55.454Z,10.40
2023-03-18T00:49:22.154Z,10.40
2023-03-18T00:54:22.593Z,10.40
2023-03-18T00:56:49.544Z,10.40
2023-03-18T00:59:16.629Z,10.40
2023-03-18T01:01:43.249Z,10.50
2023-03-18T01:04:09.937Z,10.40
2023-03-18T01:06:37.587Z,10.40
2023-03-18T01:09:05.297Z,10.40
2023-03-18T01:11:32.095Z,10.40
2023-03-18T01:13:59.578Z,10.40
2023-03-18T01:16:26.586Z,10.40
2023-03-18T01:18:53.836Z,10.40
2023-03-18T01:21:20.974Z,10.40
2023-03-18T01:23:48.081Z,10.40
2023-03-18T01:26:17.276Z,10.30
2023-03-18T01:28:44.076Z,10.40
2023-03-18T01:31:12.517Z,10.40
2023-03-18T01:33:40.188Z,10.30
2023-03-18T01:36:10.606Z,10.30
2023-03-18T01:38:37.441Z,10.30
2023-03-18T01:41:04.522Z,10.30
2023-03-18T01:43:36.541Z,10.30
2023-03-18T01:46:23.589Z,10.30
2023-03-18T01:48:51.984Z,10.30
2023-03-18T01:51:19.800Z,10.30
2023-03-18T01:53:48.584Z,10.20
2023-03-18T01:56:15.939Z,10.20
2023-03-18T01:58:44.178Z,10.20
2023-03-18T02:01:18.954Z,10.20
2023-03-18T02:06:12.447Z,10.20
2023-03-18T02:08:40.349Z,10.10
2023-03-18T02:11:08.223Z,10.10
2023-03-18T02:13:38.111Z,10.10
2023-03-18T02:16:06.986Z,10.10
2023-03-18T02:18:36.568Z,10.00
2023-03-18T02:21:21.809Z,10.10
2023-03-18T02:24:05.795Z,10.00
2023-03-18T02:26:44.521Z,10.00
2023-03-18T02:29:12.209Z,10.00
2023-03-18T02:31:39.531Z,10.00
2023-03-18T02:34:07.741Z,9.90
2023-03-18T02:36:35.677Z,9.90
2023-03-18T02:39:02.502Z,9.90
2023-03-18T02:41:34.095Z,9.90
2023-03-18T02:44:01.100Z,9.90
2023-03-18T02:46:27.768Z,9.90
2023-03-18T02:48:54.937Z,9.90
2023-03-18T02:51:21.550Z,9.90
2023-03-18T02:53:48.393Z,9.80
2023-03-18T02:56:15.120Z,9.80
2023-03-18T02:58:41.882Z,9.70
2023-03-18T03:01:08.856Z,9.70
2023-03-18T03:03:35.931Z,9.60
2023-03-18T03:06:03.220Z,9.60
2023-03-18T03:08:30.456Z,9.60
2023-03-18T03:10:57.407Z,9.60
2023-03-18T03:13:24.789Z,9.50
2023-03-18T03:15:51.598Z,9.60
2023-03-18T03:18:18.346Z,9.60
2023-03-18T03:20:45.544Z,9.60
2023-03-18T03:23:13.982Z,9.70
2023-03-18T03:25:40.596Z,9.70
2023-03-18T03:28:08.487Z,9.70
2023-03-18T03:30:36.557Z,9.80
2023-03-18T03:33:03.538Z,9.80
2023-03-18T03:35:30.928Z,9.80
2023-03-18T03:37:57.683Z,9.90
2023-03-18T03:40:25.073Z,9.80
2023-03-18T03:42:51.850Z,9.80
2023-03-18T03:45:19.077Z,9.80
2023-03-18T03:47:48.678Z,9.80
2023-03-18T03:50:16.247Z,9.80
2023-03-18T03:52:43.526Z,9.80
2023-03-18T03:55:12.133Z,10.00
2023-03-18T03:57:39.097Z,10.00
2023-03-18T04:00:07.277Z,10.10
2023-03-18T04:02:33.915Z,10.10
2023-03-18T04:05:00.666Z,10.20
2023-03-18T04:07:27.708Z,10.30
2023-03-18T04:09:55.834Z,10.40
2023-03-18T04:12:22.422Z,10.50
2023-03-18T04:14:51.724Z,10.50
2023-03-18T04:17:18.440Z,10.60
2023-03-18T04:19:45.459Z,10.50
2023-03-18T04:22:12.132Z,10.40
2023-03-18T04:24:38.976Z,10.20
2023-03-18T04:27:05.788Z,10.10
2023-03-18T04:29:32.359Z,10.00
2023-03-18T04:31:59.758Z,9.90
2023-03-18T04:34:26.340Z,9.80
2023-03-18T04:36:52.954Z,9.70
2023-03-18T04:39:19.522Z,9.60
2023-03-18T04:41:46.537Z,9.60
2023-03-18T04:44:19.586Z,9.60
2023-03-18T04:46:46.244Z,9.60
2023-03-18T04:49:13.516Z,9.70
2023-03-18T04:51:40.103Z,9.80
2023-03-18T04:54:06.948Z,9.70
2023-03-18T04:56:34.109Z,9.60
2023-03-18T04:59:00.683Z,9.50
2023-03-18T05:01:28.326Z,9.60
2023-03-18T05:03:54.949Z,9.70
2023-03-18T05:06:26.748Z,9.80
2023-03-18T05:08:53.515Z,10.00
2023-03-18T05:11:20.458Z,10.00
2023-03-18T05:13:47.519Z,9.90
2023-03-18T05:16:15.229Z,9.80
2023-03-18T05:18:41.915Z,9.70
2023-03-18T05:21:10.036Z,9.60
2023-03-18T05:23:36.663Z,9.50
2023-03-18T05:26:03.805Z,9.40
2023-03-18T05:28:30.396Z,9.20
2023-03-18T05:30:56.934Z,9.10
2023-03-18T05:33:23.694Z,9.10
2023-03-18T05:35:50.247Z,9.00
2023-03-18T05:38:17.139Z,9.00
2023-03-18T05:40:43.665Z,9.00
2023-03-18T05:43:10.427Z,9.00
2023-03-18T05:45:40.035Z,9.00
2023-03-18T05:48:07.135Z,9.00
2023-03-18T05:50:35.544Z,9.10
2023-03-18T05:53:02.796Z,9.10
2023-03-18T05:55:30.326Z,9.10
2023-03-18T05:57:57.571Z,9.20
2023-03-18T06:00:24.757Z,9.20
2023-03-18T06:02:52.527Z,9.20
2023-03-18T06:05:19.173Z,9.20
2023-03-18T06:07:46.897Z,9.20
2023-03-18T06:10:13.595Z,9.10
2023-03-18T06:12:41.314Z,9.30
2023-03-18T06:15:09.300Z,9.40
2023-03-18T06:17:35.996Z,9.50
2023-03-18T06:20:03.352Z,9.60
2023-03-18T06:22:31.638Z,9.80
2023-03-18T06:24:58.232Z,9.80
2023-03-18T06:27:24.850Z,10.00
2023-03-18T06:29:51.471Z,10.10
2023-03-18T06:32:18.062Z,10.30
2023-03-18T06:34:45.167Z,10.30
2023-03-18T06:37:12.037Z,10.40
2023-03-18T06:39:41.071Z,10.40
2023-03-18T06:42:07.873Z,10.50
2023-03-18T06:44:35.292Z,10.50
2023-03-18T06:47:01.977Z,10.50
2023-03-18T06:49:28.540Z,10.50
2023-03-18T06:51:55.190Z,10.50
2023-03-18T06:54:21.818Z,10.50
2023-03-18T06:56:48.518Z,10.50
2023-03-18T06:59:15.447Z,10.60
2023-03-18T07:01:42.167Z,10.60
2023-03-18T07:04:09.061Z,10.70
2023-03-18T07:06:36.301Z,10.70
2023-03-18T07:09:02.956Z,10.80
2023-03-18T07:11:30.086Z,10.90
2023-03-18T07:13:56.728Z,11.00
2023-03-18T07:16:23.470Z,11.10
2023-03-18T07:18:50.109Z,11.10
2023-03-18T07:21:18.842Z,11.20
2023-03-18T07:23:46.389Z,11.40
2023-03-18T07:26:12.985Z,11.50
2023-03-18T07:28:45.189Z,11.60
2023-03-18T07:31:11.860Z,11.70
2023-03-18T07:33:38.502Z,11.70
2023-03-18T07:36:05.442Z,11.90
2023-03-18T07:38:35.040Z,11.90
2023-03-18T07:41:05.058Z,11.90
2023-03-18T07:43:33.931Z,12.00
2023-03-18T07:46:00.993Z,12.10
2023-03-18T07:48:27.702Z,12.20
2023-03-18T07:50:54.395Z,12.40
2023-03-18T07:53:21.116Z,12.50
2023-03-18T07:55:47.893Z,12.50
2023-03-18T07:58:15.436Z,12.60
2023-03-18T08:00:42.747Z,12.60
2023-03-18T08:03:09.688Z,12.70
2023-03-18T08:05:36.303Z,12.80
2023-03-18T08:08:04.322Z,13.00
2023-03-18T08:10:31.391Z,13.10
2023-03-18T08:12:58.067Z,13.30
2023-03-18T08:15:26.020Z,13.40
2023-03-18T08:17:53.682Z,13.40
2023-03-18T08:20:21.302Z,13.30
2023-03-18T08:22:48.423Z,13.40
2023-03-18T08:25:15.252Z,13.50
2023-03-18T08:27:42.462Z,13.50
2023-03-18T08:30:11.340Z,13.50
2023-03-18T08:32:38.364Z,13.40
2023-03-18T08:35:05.413Z,13.40
2023-03-18T08:37:32.604Z,13.50
2023-03-18T08:39:59.223Z,13.70
2023-03-18T08:42:25.812Z,13.70
2023-03-18T08:44:52.473Z,13.80
2023-03-18T08:47:19.916Z,13.80
2023-03-18T08:49:46.618Z,14.00
2023-03-18T08:52:13.377Z,14.00
2023-03-18T08:54:41.394Z,14.20
2023-03-18T08:57:08.041Z,14.40
2023-03-18T08:59:34.737Z,14.50
2023-03-18T09:02:01.372Z,14.50
2023-03-18T09:04:29.270Z,14.70
2023-03-18T09:07:00.868Z,14.80
2023-03-18T09:09:40.913Z,15.00
2023-03-18T09:12:09.883Z,15.10
2023-03-18T09:14:36.488Z,15.60
2023-03-18T09:17:03.204Z,15.80
2023-03-18T09:19:29.902Z,15.90
2023-03-18T09:21:56.498Z,15.80
2023-03-18T09:24:23.236Z,15.80
2023-03-18T09:26:49.974Z,16.10
2023-03-18T09:29:19.947Z,16.40
2023-03-18T09:31:48.968Z,16.80
2023-03-18T09:34:15.938Z,17.10
2023-03-18T09:36:49.140Z,17.30
2023-03-18T09:39:15.871Z,17.70
2023-03-18T09:41:52.646Z,17.60
2023-03-18T09:44:31.624Z,16.90
2023-03-18T09:47:13.369Z,16.90
2023-03-18T09:49:49.737Z,17.30
2023-03-18T09:52:18.963Z,17.70
2023-03-18T09:55:08.579Z,18.50
2023-03-18T09:57:37.200Z,18.90
2023-03-18T10:00:24.970Z,19.30
2023-03-18T10:02:59.099Z,18.90
2023-03-18T10:05:29.376Z,18.90
2023-03-18T10:07:59.377Z,19.20
2023-03-18T10:10:29.394Z,19.30
2023-03-18T10:13:28.380Z,18.90
2023-03-18T10:15:59.621Z,19.10
2023-03-18T10:18:29.081Z,18.60
2023-03-18T10:21:02.241Z,18.40
2023-03-18T10:25:59.331Z,18.30
2023-03-18T10:28:38.321Z,18.80
2023-03-18T10:31:08.385Z,19.40
2023-03-18T10:33:55.252Z,20.20
2023-03-18T10:36:40.694Z,20.20
2023-03-18T10:39:15.348Z,20.40
2023-03-18T10:41:43.685Z,20.50
2023-03-18T10:44:17.347Z,19.90
2023-03-18T10:46:46.639Z,20.30
2023-03-18T10:49:17.593Z,20.20
2023-03-18T10:51:53.815Z,19.70
2023-03-18T10:54:36.653Z,19.20
2023-03-18T10:57:03.696Z,19.30
2023-03-18T10:59:33.166Z,20.10
2023-03-18T11:02:02.500Z,20.10
2023-03-18T11:04:32.034Z,20.00
2023-03-18T11:07:01.386Z,19.60
2023-03-18T11:09:33.276Z,19.80
2023-03-18T11:12:05.594Z,20.10
2023-03-18T11:14:32.539Z,19.90
2023-03-18T11:16:59.282Z,19.60
2023-03-18T11:19:32.095Z,19.30
2023-03-18T11:22:04.459Z,19.10
2023-03-18T11:24:43.940Z,18.90
2023-03-18T11:27:30.837Z,19.40
2023-03-18T11:30:00.160Z,20.60
2023-03-18T11:32:31.292Z,21.50
2023-03-18T11:35:00.570Z,20.40
2023-03-18T11:37:29.616Z,19.40
2023-03-18T11:40:07.425Z,19.00
2023-03-18T11:42:34.039Z,18.80
2023-03-18T11:45:01.599Z,18.60
2023-03-18T11:47:30.157Z,18.60
2023-03-18T11:49:57.525Z,19.30
2023-03-18T11:52:24.094Z,19.50
2023-03-18T11:55:01.070Z,19.80
2023-03-18T11:57:57.602Z,19.50
2023-03-18T12:00:43.418Z,19.40
2023-03-18T12:03:28.807Z,19.10
2023-03-18T12:06:10.613Z,18.90
2023-03-18T12:08:47.911Z,18.80
2023-03-18T12:11:14.769Z,18.70
2023-03-18T12:13:47.267Z,18.50
2023-03-18T12:16:14.984Z,18.20
2023-03-18T12:18:51.696Z,18.30
2023-03-18T12:21:30.200Z,18.40
2023-03-18T12:24:03.982Z,18.40
2023-03-18T12:26:30.521Z,18.70
2023-03-18T12:29:09.654Z,18.50
2023-03-18T12:32:11.741Z,18.40
2023-03-18T12:34:38.674Z,18.60
2023-03-18T12:37:16.398Z,18.70
2023-03-18T12:40:18.713Z,18.90
2023-03-18T12:43:03.800Z,18.80
2023-03-18T12:45:34.787Z,18.90
2023-03-18T12:48:05.225Z,18.90
2023-03-18T12:50:42.722Z,18.90
2023-03-18T12:53:17.186Z,18.90
2023-03-18T12:55:46.081Z,19.00
2023-03-18T12:58:15.372Z,18.50
2023-03-18T13:00:52.311Z,18.30
2023-03-18T13:03:26.752Z,18.30
2023-03-18T13:06:05.749Z,18.40
2023-03-18T13:08:41.238Z,18.40
2023-03-18T13:11:12.238Z,18.10
2023-03-18T13:13:43.608Z,17.80
2023-03-18T13:16:11.789Z,17.70
2023-03-18T13:18:44.576Z,17.60
2023-03-18T13:21:20.280Z,17.40
2023-03-18T13:23:46.955Z,17.40
2023-03-18T13:26:29.048Z,17.20
2023-03-18T13:29:04.518Z,17.20
2023-03-18T13:31:41.566Z,17.10
2023-03-18T13:34:27.053Z,17.00
2023-03-18T13:36:58.467Z,17.20
2023-03-18T13:39:37.393Z,17.40
2023-03-18T13:42:03.984Z,17.50
2023-03-18T13:44:38.097Z,17.50
2023-03-18T13:47:07.432Z,17.60
2023-03-18T13:49:39.244Z,17.50
2023-03-18T13:52:21.183Z,17.40
2023-03-18T13:54:48.554Z,17.20
2023-03-18T13:57:24.366Z,17.20
2023-03-18T13:59:51.132Z,17.20
2023-03-18T14:02:45.324Z,17.20
2023-03-18T14:05:31.328Z,17.20
2023-03-18T14:07:58.509Z,17.20
2023-03-18T14:10:25.210Z,17.10
2023-03-18T14:12:52.014Z,17.20
2023-03-18T14:15:37.897Z,17.10
2023-03-18T14:18:17.488Z,17.10
2023-03-18T14:20:44.314Z,17.10
2023-03-18T14:23:28.530Z,17.10
2023-03-18T14:26:02.186Z,17.10
2023-03-18T14:28:30.079Z,17.10
2023-03-18T14:30:58.460Z,17.10
2023-03-18T14:33:25.064Z,17.20
2023-03-18T14:35:59.155Z,17.30
2023-03-18T14:38:30.535Z,17.50
2023-03-18T14:40:58.004Z,17.60
2023-03-18T14:43:29.982Z,17.70
2023-03-18T14:45:58.785Z,17.70
2023-03-18T14:48:35.188Z,17.70
2023-03-18T14:51:12.913Z,17.80
2023-03-18T14:53:41.760Z,18.10
2023-03-18T14:56:20.673Z,18.20
2023-03-18T14:58:47.668Z,18.50
2023-03-18T15:01:16.173Z,18.90
2023-03-18T15:03:44.722Z,19.50
2023-03-18T15:06:17.660Z,20.00
2023-03-18T15:08:48.686Z,19.80
2023-03-18T15:11:16.330Z,19.20
2023-03-18T15:13:43.013Z,18.80
2023-03-18T15:16:11.177Z,18.80
2023-03-18T15:18:38.699Z,18.80
2023-03-18T15:21:18.924Z,18.80
2023-03-18T15:23:51.108Z,18.70
2023-03-18T15:26:18.326Z,18.70
2023-03-18T15:28:48.817Z,18.70
2023-03-18T15:31:38.704Z,19.40
2023-03-18T15:34:05.209Z,20.60
2023-03-18T15:36:40.068Z,21.70
2023-03-18T15:39:20.520Z,21.30
2023-03-18T15:41:50.430Z,20.30
2023-03-18T15:44:22.510Z,19.30
2023-03-18T15:46:49.903Z,18.80
2023-03-18T15:49:17.642Z,18.40
2023-03-18T15:51:48.383Z,18.10
2023-03-18T15:54:16.356Z,18.50
2023-03-18T15:56:44.203Z,18.70
2023-03-18T15:59:15.997Z,18.90
2023-03-18T16:01:42.613Z,18.60
2023-03-18T16:04:12.257Z,19.00
2023-03-18T16:06:40.225Z,18.90
2023-03-18T16:09:19.236Z,18.40
2023-03-18T16:11:48.433Z,18.10
2023-03-18T16:14:16.334Z,17.90
2023-03-18T16:16:43.064Z,18.40
2023-03-18T16:19:16.377Z,18.40
2023-03-18T16:21:42.858Z,18.50
2023-03-18T16:24:10.597Z,18.80
2023-03-18T16:26:37.536Z,18.80
2023-03-18T16:29:11.177Z,18.90
2023-03-18T16:31:38.396Z,19.00
2023-03-18T16:34:06.650Z,18.80
2023-03-18T16:36:35.137Z,19.20
2023-03-18T16:39:01.831Z,19.70
2023-03-18T16:41:28.621Z,19.70
2023-03-18T16:43:55.634Z,19.10
2023-03-18T16:46:23.913Z,19.40
2023-03-18T16:48:50.597Z,18.90
2023-03-18T16:51:18.925Z,19.00
2023-03-18T16:53:45.546Z,19.50
2023-03-18T16:56:16.846Z,19.80
2023-03-18T16:58:44.515Z,19.90
2023-03-18T17:01:14.374Z,19.20
2023-03-18T17:03:40.938Z,18.60
2023-03-18T17:06:08.722Z,17.90
2023-03-18T17:08:36.703Z,17.70
2023-03-18T17:11:03.846Z,17.60
2023-03-18T17:13:32.897Z,18.00
2023-03-18T17:15:59.486Z,17.90
2023-03-18T17:18:26.273Z,17.60
2023-03-18T17:20:52.937Z,17.10
2023-03-18T17:23:21.192Z,16.80
2023-03-18T17:25:49.383Z,16.50
2023-03-18T17:28:18.324Z,16.30
2023-03-18T17:30:44.936Z,16.20
2023-03-18T17:33:24.358Z,16.00
2023-03-18T17:35:51.998Z,15.90
2023-03-18T17:38:19.084Z,15.80
2023-03-18T17:40:47.730Z,15.70
2023-03-18T17:43:18.726Z,15.60
2023-03-18T17:45:47.622Z,15.50
2023-03-18T17:48:14.503Z,15.50
2023-03-18T17:50:44.267Z,15.50
2023-03-18T17:53:25.301Z,15.40
2023-03-18T17:55:53.358Z,15.30
2023-03-18T17:58:21.272Z,15.30
2023-03-18T18:00:48.049Z,15.20
2023-03-18T18:03:22.231Z,15.20
2023-03-18T18:05:48.851Z,15.20
2023-03-18T18:08:17.751Z,15.10
2023-03-18T18:10:45.153Z,15.10
2023-03-18T18:13:16.708Z,15.10
2023-03-18T18:15:43.883Z,15.10
2023-03-18T18:18:17.342Z,15.00
2023-03-18T18:20:43.926Z,14.90
2023-03-18T18:23:17.130Z,14.80
2023-03-18T18:25:43.763Z,14.70
2023-03-18T18:28:21.231Z,14.70
2023-03-18T18:30:50.891Z,14.60
2023-03-18T18:33:17.609Z,14.60
2023-03-18T18:35:44.153Z,14.60
2023-03-18T18:38:12.468Z,14.50
2023-03-18T18:40:39.507Z,14.40
2023-03-18T18:43:06.334Z,14.40
2023-03-18T18:45:34.107Z,14.30
2023-03-18T18:48:00.776Z,14.20
2023-03-18T18:50:28.783Z,14.30
2023-03-18T18:52:55.648Z,14.20
2023-03-18T18:55:22.267Z,14.20
2023-03-18T18:57:48.855Z,14.20
2023-03-18T19:00:17.379Z,14.20
2023-03-18T19:02:46.072Z,14.20
2023-03-18T19:05:12.832Z,14.10
2023-03-18T19:07:41.637Z,14.10
2023-03-18T19:10:13.257Z,14.20
2023-03-18T19:12:40.054Z,14.20
2023-03-18T19:15:07.266Z,14.30
2023-03-18T19:17:34.298Z,14.30
2023-03-18T19:20:01.409Z,14.30
2023-03-18T19:22:28.299Z,14.30
2023-03-18T19:24:54.970Z,14.30
2023-03-18T19:27:26.630Z,14.30
2023-03-18T19:29:54.091Z,14.30
2023-03-18T19:32:21.614Z,14.30
2023-03-18T19:34:48.839Z,14.20
2023-03-18T19:37:20.474Z,14.20
2023-03-18T19:39:47.138Z,14.20
2023-03-18T19:42:17.628Z,14.20
2023-03-18T19:44:45.227Z,14.20
2023-03-18T19:47:25.486Z,14.10
2023-03-18T19:49:52.454Z,14.10
2023-03-18T19:52:19.296Z,14.00
2023-03-18T19:54:46.595Z,14.00
2023-03-18T19:57:15.314Z,14.00
2023-03-18T19:59:42.969Z,14.00
2023-03-18T20:02:23.122Z,14.00
2023-03-18T20:04:50.853Z,14.00
2023-03-18T20:07:18.658Z,14.10
2023-03-18T20:09:45.243Z,14.10
2023-03-18T20:12:34.915Z,14.10
2023-03-18T20:15:01.806Z,14.10
2023-03-18T20:17:28.355Z,14.10
2023-03-18T20:19:55.189Z,14.10
2023-03-18T20:22:52.850Z,14.10
2023-03-18T20:25:25.966Z,14.10
2023-03-18T20:27:56.099Z,14.10
2023-03-18T20:30:24.373Z,14.10
2023-03-18T20:32:51.416Z,14.20
2023-03-18T20:35:19.269Z,14.20
2023-03-18T20:37:46.436Z,14.30
2023-03-18T20:40:23.284Z,14.30
2023-03-18T20:42:50.023Z,14.40
2023-03-18T20:45:16.896Z,14.50
2023-03-18T20:47:44.322Z,14.50
2023-03-18T20:50:18.395Z,14.50
2023-03-18T20:52:46.937Z,14.40
2023-03-18T20:57:48.824Z,14.40
2023-03-18T21:00:18.729Z,14.40
2023-03-18T21:02:46.832Z,14.40
2023-03-18T21:05:13.893Z,14.30
2023-03-18T21:07:43.072Z,14.10
2023-03-18T21:10:15.004Z,13.90
2023-03-18T21:12:41.654Z,13.80
2023-03-18T21:15:15.445Z,13.40
2023-03-18T21:17:42.386Z,13.20
2023-03-18T21:20:21.717Z,13.00
2023-03-18T21:22:50.350Z,12.90
2023-03-18T21:25:18.376Z,12.90
2023-03-18T21:27:45.980Z,12.80
2023-03-18T21:30:13.707Z,12.70
2023-03-18T21:32:41.068Z,12.70
2023-03-18T21:35:14.518Z,12.70
2023-03-18T21:37:41.086Z,12.60
2023-03-18T21:40:08.544Z,12.60
2023-03-18T21:42:36.613Z,12.70
2023-03-18T21:45:04.341Z,12.80
2023-03-18T21:47:30.912Z,12.80
2023-03-18T21:49:57.534Z,12.90
2023-03-18T21:52:29.190Z,13.00
2023-03-18T21:54:55.980Z,13.00
2023-03-18T21:57:25.779Z,13.00
2023-03-18T21:59:53.197Z,13.00
2023-03-18T22:02:26.525Z,13.00
2023-03-18T22:04:53.677Z,13.00
2023-03-18T22:07:22.966Z,12.90
2023-03-18T22:09:49.740Z,12.90
2023-03-18T22:12:18.085Z,12.90
2023-03-18T22:14:44.693Z,12.90
2023-03-18T22:17:25.363Z,12.90
2023-03-18T22:19:56.059Z,13.00
2023-03-18T22:22:23.770Z,12.90
2023-03-18T22:24:51.199Z,13.00
2023-03-18T22:27:19.219Z,13.00
2023-03-18T22:29:46.226Z,12.90
2023-03-18T22:32:21.618Z,12.90
2023-03-18T22:34:48.619Z,12.80
2023-03-18T22:37:23.019Z,12.70
2023-03-18T22:39:49.944Z,12.70
2023-03-18T22:42:17.893Z,12.70
2023-03-18T22:44:44.620Z,12.60
2023-03-18T22:47:15.096Z,12.70
2023-03-18T22:49:41.998Z,12.60
2023-03-18T22:52:14.683Z,12.60
2023-03-18T22:54:44.108Z,12.60
2023-03-18T22:57:18.432Z,12.60
2023-03-18T22:59:45.398Z,12.70
2023-03-18T23:02:17.048Z,12.70
2023-03-18T23:04:43.893Z,12.70
2023-03-18T23:07:20.437Z,12.80
2023-03-18T23:09:56.167Z,12.80
2023-03-18T23:12:25.737Z,12.80
2023-03-18T23:14:53.066Z,12.80
2023-03-18T23:17:21.198Z,12.80
2023-03-18T23:19:47.863Z,12.80
2023-03-18T23:22:22.194Z,12.90
2023-03-18T23:24:48.778Z,12.90
2023-03-18T23:27:15.291Z,12.80
2023-03-18T23:29:43.289Z,12.80
2023-03-18T23:32:10.539Z,12.70
2023-03-18T23:34:37.061Z,12.80
2023-03-18T23:37:03.780Z,12.80
2023-03-18T23:39:31.199Z,12.70
2023-03-18T23:41:57.784Z,12.70
2023-03-18T23:44:25.505Z,12.70
2023-03-18T23:46:52.623Z,12.70
2023-03-18T23:49:19.274Z,12.60
2023-03-18T23:51:46.036Z,12.70
2023-03-18T23:54:13.824Z,12.70
2023-03-18T23:56:40.392Z,12.70
2023-03-18T23:59:06.937Z,12.80
